Time;durP1;ratioP1;P1;durP2;ratioP2;P2;SDS_P1;SDS_P2;PMS_P1;PMS_P2;Temp;Humidity;BMP_temperature;BMP_pressure;BME280_temperature;BME280_humidity;BME280_pressure;Samples;Min_cycle;Max_cycle;Signal;HPM_P1;HPM_P2
2022/12/03 00:00:50;;;;;;;6.72;3.10;;;;;;;;;;5030366;28;20047;-74
2022/12/03 00:03:16;;;;;;;5.35;3.05;;;;;;;;;;5033672;28;20038;-74
2022/12/03 00:05:42;;;;;;;7.10;3.35;;;;;;;;;;5035961;28;20041;-74
2022/12/03 00:08:08;;;;;;;11.52;5.22;;;;;;;;;;5034292;28;20045;-74
2022/12/03 00:10:34;;;;;;;7.05;3.45;;;;;;;;;;5034717;28;20048;-73
2022/12/03 00:13:00;;;;;;;6.00;2.88;;;;;;;;;;5035609;28;20037;-74
2022/12/03 00:15:26;;;;;;;7.82;3.38;;;;;;;;;;5035959;28;20048;-74
2022/12/03 00:17:52;;;;;;;7.22;4.15;;;;;;;;;;5034196;28;20041;-74
2022/12/03 00:20:20;;;;;;;6.22;3.80;;;;;;;;;;5036675;28;20124;-74
2022/12/03 00:22:46;;;;;;;7.25;4.32;;;;;;;;;;5036165;28;20971;-73
2022/12/03 00:25:12;;;;;;;7.32;4.85;;;;;;;;;;5031759;28;20519;-73
2022/12/03 00:27:38;;;;;;;8.05;4.28;;;;;;;;;;5030830;28;20065;-75
2022/12/03 00:30:05;;;;;;;10.68;4.93;;;;;;;;;;5036303;28;20088;-74
2022/12/03 00:32:31;;;;;;;13.20;5.50;;;;;;;;;;5033542;28;20092;-72
2022/12/03 00:34:57;;;;;;;10.02;3.85;;;;;;;;;;5035735;28;20096;-73
2022/12/03 00:37:23;;;;;;;7.18;3.85;;;;;;;;;;5034347;28;20049;-74
2022/12/03 00:39:49;;;;;;;10.00;4.63;;;;;;;;;;5027866;28;20105;-73
2022/12/03 00:42:15;;;;;;;10.93;5.63;;;;;;;;;;5030828;28;20049;-73
2022/12/03 00:44:41;;;;;;;14.18;6.05;;;;;;;;;;5030979;28;20053;-72
2022/12/03 00:47:08;;;;;;;12.88;6.18;;;;;;;;;;5031065;28;20041;-73
2022/12/03 00:49:34;;;;;;;15.60;6.55;;;;;;;;;;5047529;28;20038;-72
2022/12/03 00:52:00;;;;;;;7.72;3.67;;;;;;;;;;5034179;28;20065;-73
2022/12/03 00:54:26;;;;;;;10.77;4.35;;;;;;;;;;5035025;28;20045;-73
2022/12/03 00:56:52;;;;;;;11.95;6.07;;;;;;;;;;5034104;28;20599;-72
2022/12/03 00:59:19;;;;;;;13.00;7.38;;;;;;;;;;5028163;28;20132;-73
2022/12/03 01:01:45;;;;;;;15.57;7.00;;;;;;;;;;5033919;28;20049;-73
2022/12/03 01:04:11;;;;;;;13.18;7.25;;;;;;;;;;5034713;28;20050;-73
2022/12/03 01:06:37;;;;;;;12.00;7.28;;;;;;;;;;5049047;28;20045;-73
2022/12/03 01:09:03;;;;;;;10.88;5.47;;;;;;;;;;5033430;28;20149;-72
2022/12/03 01:11:38;;;;;;;15.95;7.00;;;;;;;;;;5048843;28;20053;-73
2022/12/03 01:14:05;;;;;;;16.63;8.38;;;;;;;;;;5047960;28;20053;-73
2022/12/03 01:16:31;;;;;;;11.57;6.32;;;;;;;;;;5027068;28;20621;-73
2022/12/03 01:18:57;;;;;;;19.38;9.40;;;;;;;;;;5032979;28;20058;-74
2022/12/03 01:21:24;;;;;;;20.08;8.38;;;;;;;;;;5032778;28;20626;-73
2022/12/03 01:23:50;;;;;;;17.13;6.65;;;;;;;;;;5050274;28;20541;-73
2022/12/03 01:26:16;;;;;;;19.83;9.23;;;;;;;;;;5033304;28;20136;-73
2022/12/03 01:28:42;;;;;;;21.23;8.52;;;;;;;;;;5031235;28;20125;-72
2022/12/03 01:33:53;;;;;;;22.17;10.15;;;;;;;;;;5033157;28;20544;-74
2022/12/03 01:36:19;;;;;;;19.83;8.02;;;;;;;;;;5031090;28;20077;-72
2022/12/03 01:38:45;;;;;;;26.50;10.77;;;;;;;;;;5035731;28;20034;-73
2022/12/03 01:41:11;;;;;;;16.48;7.15;;;;;;;;;;5032600;28;20080;-74
2022/12/03 01:43:37;;;;;;;24.40;10.98;;;;;;;;;;5048074;28;20100;-74
2022/12/03 01:46:03;;;;;;;27.88;10.15;;;;;;;;;;5048810;28;20597;-75
2022/12/03 01:48:32;;;;;;;25.05;12.10;;;;;;;;;;5025652;28;20072;-74
2022/12/03 01:50:58;;;;;;;19.05;8.00;;;;;;;;;;5030291;28;20543;-74
2022/12/03 01:53:24;;;;;;;18.58;8.82;;;;;;;;;;5033336;28;21175;-73
2022/12/03 01:55:51;;;;;;;28.27;11.07;;;;;;;;;;5032685;28;20061;-73
2022/12/03 01:58:20;;;;;;;36.22;11.15;;;;;;;;;;5031408;28;20052;-73
2022/12/03 02:00:46;;;;;;;18.17;8.93;;;;;;;;;;5032501;28;20041;-74
2022/12/03 02:03:16;;;;;;;23.92;10.80;;;;;;;;;;5032692;28;20103;-73
2022/12/03 02:05:42;;;;;;;19.00;10.63;;;;;;;;;;5034269;28;20046;-73
2022/12/03 02:08:27;;;;;;;16.98;8.85;;;;;;;;;;5047880;28;20037;-73
2022/12/03 02:10:53;;;;;;;22.42;9.38;;;;;;;;;;5033429;28;20124;-73
2022/12/03 02:13:19;;;;;;;17.42;8.25;;;;;;;;;;5033519;28;20114;-73
2022/12/03 02:15:46;;;;;;;24.75;12.75;;;;;;;;;;5030952;28;20065;-73
2022/12/03 02:18:12;;;;;;;27.13;12.23;;;;;;;;;;5029888;28;20056;-74
2022/12/03 02:20:57;;;;;;;15.75;9.52;;;;;;;;;;5030471;28;20049;-72
2022/12/03 02:23:23;;;;;;;26.92;12.75;;;;;;;;;;5028438;28;20044;-73
2022/12/03 02:25:49;;;;;;;32.38;15.30;;;;;;;;;;5024986;28;20045;-72
2022/12/03 02:28:15;;;;;;;33.88;15.95;;;;;;;;;;5042388;28;20104;-73
2022/12/03 02:30:41;;;;;;;32.60;14.73;;;;;;;;;;5033747;28;20066;-73
2022/12/03 02:33:07;;;;;;;28.98;14.20;;;;;;;;;;5025764;28;20090;-74
2022/12/03 02:35:34;;;;;;;25.05;10.48;;;;;;;;;;5022927;28;20620;-74
2022/12/03 02:38:09;;;;;;;32.35;12.38;;;;;;;;;;5039537;28;20045;-74
2022/12/03 02:40:35;;;;;;;36.95;14.70;;;;;;;;;;5032014;28;20041;-73
2022/12/03 02:43:02;;;;;;;34.63;16.30;;;;;;;;;;5025634;28;20076;-73
2022/12/03 02:45:30;;;;;;;29.23;13.32;;;;;;;;;;5040656;28;20056;-74
2022/12/03 02:47:56;;;;;;;26.48;10.90;;;;;;;;;;5023306;28;21242;-74
2022/12/03 02:50:24;;;;;;;38.35;13.27;;;;;;;;;;5025299;28;20141;-73
2022/12/03 02:52:52;;;;;;;34.95;15.35;;;;;;;;;;5024823;28;20186;-73
2022/12/03 02:55:18;;;;;;;38.05;13.43;;;;;;;;;;5021394;28;20594;-74
2022/12/03 02:57:45;;;;;;;38.75;15.45;;;;;;;;;;5024966;28;20083;-73
2022/12/03 03:00:12;;;;;;;32.03;12.02;;;;;;;;;;5025301;28;20631;-73
2022/12/03 03:02:39;;;;;;;18.58;8.15;;;;;;;;;;5023692;28;20072;-73
2022/12/03 03:05:06;;;;;;;33.38;12.50;;;;;;;;;;5029297;28;20049;-74
2022/12/03 03:07:33;;;;;;;29.58;13.00;;;;;;;;;;5021674;28;20042;-74
2022/12/03 03:09:59;;;;;;;35.63;15.52;;;;;;;;;;5029669;28;20103;-74
2022/12/03 03:12:25;;;;;;;20.52;10.10;;;;;;;;;;5025411;28;20506;-73
2022/12/03 03:14:51;;;;;;;21.73;9.90;;;;;;;;;;5029008;28;20045;-74
2022/12/03 03:17:17;;;;;;;34.65;15.10;;;;;;;;;;5029137;28;20431;-73
2022/12/03 03:19:44;;;;;;;31.80;13.13;;;;;;;;;;5045405;28;20047;-73
2022/12/03 03:22:10;;;;;;;38.13;17.17;;;;;;;;;;5027101;28;20057;-73
2022/12/03 03:24:37;;;;;;;28.35;12.32;;;;;;;;;;5024920;28;20050;-74
2022/12/03 03:27:03;;;;;;;35.13;15.25;;;;;;;;;;5024848;28;20684;-73
2022/12/03 03:29:30;;;;;;;32.67;12.88;;;;;;;;;;5029977;28;20990;-74
2022/12/03 03:31:56;;;;;;;36.08;15.05;;;;;;;;;;5024980;28;20626;-74
2022/12/03 03:34:23;;;;;;;34.92;16.17;;;;;;;;;;5025859;28;20061;-74
2022/12/03 03:36:49;;;;;;;31.23;13.90;;;;;;;;;;5022600;28;20048;-74
2022/12/03 03:39:15;;;;;;;29.05;15.80;;;;;;;;;;5025607;28;20089;-73
2022/12/03 03:41:42;;;;;;;29.83;11.40;;;;;;;;;;5043504;28;20582;-74
2022/12/03 03:44:08;;;;;;;28.50;13.82;;;;;;;;;;5025895;28;21114;-72
2022/12/03 03:46:35;;;;;;;27.23;12.30;;;;;;;;;;5028712;28;20506;-73
2022/12/03 03:49:02;;;;;;;35.85;15.07;;;;;;;;;;5031316;28;20045;-73
2022/12/03 03:51:28;;;;;;;32.20;14.75;;;;;;;;;;5029364;28;20045;-74
2022/12/03 03:53:54;;;;;;;40.95;16.02;;;;;;;;;;5030183;28;20041;-73
2022/12/03 03:56:21;;;;;;;33.25;12.10;;;;;;;;;;5028722;28;20152;-74
2022/12/03 03:58:47;;;;;;;35.75;15.98;;;;;;;;;;5030449;28;20589;-73
2022/12/03 04:01:13;;;;;;;28.35;13.48;;;;;;;;;;5045147;28;20144;-73
2022/12/03 04:03:40;;;;;;;36.30;15.85;;;;;;;;;;5030001;28;20056;-73
2022/12/03 04:06:06;;;;;;;35.67;14.25;;;;;;;;;;5029677;28;20480;-73
2022/12/03 04:08:32;;;;;;;26.15;12.10;;;;;;;;;;5029220;28;20033;-73
2022/12/03 04:13:43;;;;;;;23.52;10.98;;;;;;;;;;5028625;28;20121;-73
2022/12/03 04:16:10;;;;;;;34.55;15.43;;;;;;;;;;5029290;28;20050;-73
2022/12/03 04:18:42;;;;;;;23.70;11.48;;;;;;;;;;5030424;28;20582;-73
2022/12/03 04:23:53;;;;;;;23.73;12.73;;;;;;;;;;5029042;28;20041;-73
2022/12/03 04:29:04;;;;;;;28.98;15.32;;;;;;;;;;5029102;28;20557;-73
2022/12/03 04:36:59;;;;;;;25.48;12.30;;;;;;;;;;5029806;28;20057;-73
2022/12/03 04:39:26;;;;;;;30.70;11.65;;;;;;;;;;5030900;28;20049;-73
2022/12/03 04:41:52;;;;;;;30.77;14.52;;;;;;;;;;5029148;28;20046;-74
2022/12/03 04:44:35;;;;;;;33.13;13.68;;;;;;;;;;5026430;28;20045;-73
2022/12/03 04:47:07;;;;;;;21.98;10.55;;;;;;;;;;5035185;28;20061;-75
2022/12/03 04:49:33;;;;;;;13.85;7.80;;;;;;;;;;5030167;28;20049;-73
2022/12/03 04:51:59;;;;;;;21.67;10.88;;;;;;;;;;5027950;28;20404;-73
2022/12/03 04:54:26;;;;;;;33.42;14.70;;;;;;;;;;5029802;28;20050;-74
2022/12/03 04:56:52;;;;;;;30.17;14.77;;;;;;;;;;5043489;28;20044;-74
2022/12/03 04:59:18;;;;;;;26.20;12.05;;;;;;;;;;5029761;28;20565;-74
2022/12/03 05:01:45;;;;;;;27.00;12.98;;;;;;;;;;5029756;28;20099;-75
2022/12/03 05:04:11;;;;;;;24.08;10.15;;;;;;;;;;5027453;28;20041;-75
2022/12/03 05:06:38;;;;;;;33.53;14.38;;;;;;;;;;5045262;28;20982;-75
2022/12/03 05:09:04;;;;;;;24.58;12.75;;;;;;;;;;5038940;28;20037;-73
2022/12/03 05:11:30;;;;;;;28.23;13.52;;;;;;;;;;5028153;28;20622;-74
2022/12/03 05:13:56;;;;;;;29.42;14.77;;;;;;;;;;5026783;28;20038;-73
2022/12/03 05:16:22;;;;;;;29.52;14.43;;;;;;;;;;5028997;28;20042;-73
2022/12/03 05:18:49;;;;;;;30.38;14.40;;;;;;;;;;5029918;28;20041;-73
2022/12/03 05:21:15;;;;;;;29.67;13.10;;;;;;;;;;5023525;28;20045;-73
2022/12/03 05:23:41;;;;;;;35.03;16.08;;;;;;;;;;5023121;28;20068;-73
2022/12/03 05:26:07;;;;;;;35.20;13.63;;;;;;;;;;5043181;28;20514;-73
2022/12/03 05:28:33;;;;;;;38.47;14.38;;;;;;;;;;5028620;28;20129;-74
2022/12/03 05:30:59;;;;;;;29.55;13.80;;;;;;;;;;5028144;28;20590;-73
2022/12/03 05:33:26;;;;;;;29.10;14.30;;;;;;;;;;5027219;28;20046;-74
2022/12/03 05:35:52;;;;;;;26.10;12.85;;;;;;;;;;5027712;28;20030;-73
2022/12/03 05:38:18;;;;;;;32.55;13.27;;;;;;;;;;5027696;28;20630;-73
2022/12/03 05:40:44;;;;;;;24.27;12.10;;;;;;;;;;5028159;28;20961;-75
2022/12/03 05:43:10;;;;;;;33.25;14.00;;;;;;;;;;5029007;28;20107;-74
2022/12/03 05:45:37;;;;;;;33.22;14.43;;;;;;;;;;5026109;28;20516;-72
2022/12/03 05:48:04;;;;;;;28.23;14.52;;;;;;;;;;5028510;28;20045;-73
2022/12/03 05:50:31;;;;;;;34.20;14.75;;;;;;;;;;5027274;28;20522;-75
2022/12/03 05:52:58;;;;;;;27.55;14.25;;;;;;;;;;5027366;28;20072;-74
2022/12/03 05:55:24;;;;;;;28.35;12.82;;;;;;;;;;5044891;28;20721;-74
2022/12/03 05:57:50;;;;;;;26.30;14.07;;;;;;;;;;5028206;28;20056;-75
2022/12/03 06:00:18;;;;;;;28.65;13.65;;;;;;;;;;5029193;28;20045;-73
2022/12/03 06:02:44;;;;;;;27.95;12.73;;;;;;;;;;5030162;28;20041;-75
2022/12/03 06:05:11;;;;;;;26.60;12.70;;;;;;;;;;5028485;28;21406;-74
2022/12/03 06:07:37;;;;;;;26.02;12.85;;;;;;;;;;5031365;28;20909;-74
2022/12/03 06:10:05;;;;;;;26.17;11.98;;;;;;;;;;5028830;28;20555;-73
2022/12/03 06:12:31;;;;;;;24.98;13.52;;;;;;;;;;5030811;28;20045;-74
2022/12/03 06:14:58;;;;;;;25.60;13.75;;;;;;;;;;5029730;28;21418;-73
2022/12/03 06:17:24;;;;;;;26.05;13.27;;;;;;;;;;5030453;28;20044;-73
2022/12/03 06:19:50;;;;;;;29.30;13.20;;;;;;;;;;5030320;28;20046;-73
2022/12/03 06:22:16;;;;;;;26.20;12.50;;;;;;;;;;5026765;28;20042;-73
2022/12/03 06:24:43;;;;;;;25.27;12.30;;;;;;;;;;5027277;28;20048;-74
2022/12/03 06:27:09;;;;;;;23.90;10.43;;;;;;;;;;5025797;28;20056;-74
2022/12/03 06:29:35;;;;;;;26.40;12.73;;;;;;;;;;5027243;28;20524;-74
2022/12/03 06:32:01;;;;;;;24.40;11.93;;;;;;;;;;5042250;28;20042;-73
2022/12/03 06:34:27;;;;;;;24.70;12.25;;;;;;;;;;5028574;28;20128;-73
2022/12/03 06:36:53;;;;;;;21.48;11.63;;;;;;;;;;5026972;28;20042;-72
2022/12/03 06:39:19;;;;;;;19.13;8.27;;;;;;;;;;5026277;28;20046;-73
2022/12/03 06:41:45;;;;;;;29.08;12.98;;;;;;;;;;5042757;28;20053;-73
2022/12/03 06:44:11;;;;;;;21.35;11.20;;;;;;;;;;5027010;28;20049;-73
2022/12/03 06:46:37;;;;;;;23.23;11.90;;;;;;;;;;5026348;28;20054;-73
2022/12/03 06:49:03;;;;;;;28.13;12.98;;;;;;;;;;5029950;28;20057;-73
2022/12/03 06:51:29;;;;;;;25.75;12.65;;;;;;;;;;5026702;28;20107;-73
2022/12/03 06:53:56;;;;;;;22.42;11.95;;;;;;;;;;5024861;28;20038;-73
2022/12/03 06:56:22;;;;;;;17.38;10.10;;;;;;;;;;5041975;28;20889;-74
2022/12/03 06:58:48;;;;;;;25.88;13.02;;;;;;;;;;5028360;28;20045;-73
2022/12/03 07:01:14;;;;;;;19.60;10.55;;;;;;;;;;5023585;28;20050;-73
2022/12/03 07:03:40;;;;;;;22.60;12.20;;;;;;;;;;5029538;28;20042;-74
2022/12/03 07:06:06;;;;;;;17.90;10.48;;;;;;;;;;5034567;28;20041;-72
2022/12/03 07:08:32;;;;;;;22.95;12.05;;;;;;;;;;5026821;28;20046;-74
2022/12/03 07:10:58;;;;;;;19.35;11.25;;;;;;;;;;5026330;28;20049;-73
2022/12/03 07:13:24;;;;;;;23.33;11.15;;;;;;;;;;5029663;28;20135;-73
2022/12/03 07:15:51;;;;;;;23.08;11.68;;;;;;;;;;5027912;28;20137;-72
2022/12/03 07:18:17;;;;;;;27.13;13.20;;;;;;;;;;5045065;28;20049;-73
2022/12/03 07:20:43;;;;;;;22.27;10.32;;;;;;;;;;5043500;28;20045;-73
2022/12/03 07:23:09;;;;;;;25.15;11.88;;;;;;;;;;5028382;28;20045;-73
2022/12/03 07:25:35;;;;;;;21.55;10.45;;;;;;;;;;5042975;28;20064;-74
2022/12/03 07:28:01;;;;;;;25.02;13.43;;;;;;;;;;5027430;28;20092;-74
2022/12/03 07:30:27;;;;;;;24.20;11.23;;;;;;;;;;5026645;28;20048;-74
2022/12/03 07:32:54;;;;;;;18.95;10.50;;;;;;;;;;5028942;28;20072;-74
2022/12/03 07:35:20;;;;;;;21.95;10.65;;;;;;;;;;5027224;28;20069;-74
2022/12/03 07:37:46;;;;;;;22.75;12.45;;;;;;;;;;5035350;28;20602;-73
2022/12/03 07:40:12;;;;;;;23.58;11.40;;;;;;;;;;5018917;28;20089;-73
2022/12/03 07:42:38;;;;;;;21.95;10.57;;;;;;;;;;5022961;28;20045;-74
2022/12/03 07:45:05;;;;;;;23.05;11.95;;;;;;;;;;5023407;28;20108;-73
2022/12/03 07:47:31;;;;;;;21.45;11.75;;;;;;;;;;5023059;28;20124;-74
2022/12/03 07:49:57;;;;;;;22.15;10.90;;;;;;;;;;5023638;28;20048;-74
2022/12/03 07:52:23;;;;;;;19.15;8.68;;;;;;;;;;5043619;28;20042;-74
2022/12/03 07:54:49;;;;;;;20.77;10.52;;;;;;;;;;5029319;28;20118;-74
2022/12/03 07:57:15;;;;;;;23.27;10.95;;;;;;;;;;5025558;28;20046;-74
2022/12/03 07:59:41;;;;;;;20.70;9.70;;;;;;;;;;5032099;28;20042;-75
2022/12/03 08:02:08;;;;;;;19.85;10.75;;;;;;;;;;5030279;28;20033;-74
2022/12/03 08:04:34;;;;;;;18.65;10.32;;;;;;;;;;5030737;28;20080;-74
2022/12/03 08:07:00;;;;;;;9.40;6.18;;;;;;;;;;5029478;28;20574;-74
2022/12/03 08:09:26;;;;;;;15.18;7.72;;;;;;;;;;5037446;28;20037;-74
2022/12/03 08:11:53;;;;;;;15.70;9.57;;;;;;;;;;5029308;28;20041;-73
2022/12/03 08:14:20;;;;;;;21.20;10.27;;;;;;;;;;5028415;28;20044;-74
2022/12/03 08:16:47;;;;;;;14.88;7.55;;;;;;;;;;5029186;28;20042;-73
2022/12/03 08:19:17;;;;;;;15.18;8.07;;;;;;;;;;5046179;28;20686;-73
2022/12/03 08:21:44;;;;;;;17.30;9.85;;;;;;;;;;5029670;28;20070;-73
2022/12/03 08:24:16;;;;;;;17.10;8.68;;;;;;;;;;5030121;28;20042;-73
2022/12/03 08:26:45;;;;;;;17.77;11.25;;;;;;;;;;5031462;28;20089;-73
2022/12/03 08:29:12;;;;;;;15.18;8.38;;;;;;;;;;5030807;28;20038;-73
2022/12/03 08:31:39;;;;;;;18.13;8.60;;;;;;;;;;5027664;28;20715;-72
2022/12/03 08:34:22;;;;;;;15.88;8.35;;;;;;;;;;5027317;28;20037;-73
2022/12/03 08:36:50;;;;;;;16.42;9.55;;;;;;;;;;5045532;28;20037;-73
2022/12/03 08:39:27;;;;;;;16.08;7.50;;;;;;;;;;5030344;28;20049;-73
2022/12/03 08:44:40;;;;;;;21.40;10.23;;;;;;;;;;5028623;28;20132;-72
2022/12/03 08:47:11;;;;;;;19.42;9.05;;;;;;;;;;5029227;28;20054;-72
2022/12/03 08:49:38;;;;;;;16.52;8.02;;;;;;;;;;5032406;28;20121;-72
2022/12/03 08:52:14;;;;;;;19.08;9.27;;;;;;;;;;5030446;28;20048;-73
2022/12/03 08:54:41;;;;;;;20.33;10.25;;;;;;;;;;5029241;28;20048;-72
2022/12/03 08:57:26;;;;;;;19.30;9.40;;;;;;;;;;5031495;28;20042;-72
2022/12/03 09:00:18;;;;;;;14.68;7.65;;;;;;;;;;5031200;28;20052;-72
2022/12/03 09:02:45;;;;;;;20.13;11.82;;;;;;;;;;5024863;28;20164;-72
2022/12/03 09:05:29;;;;;;;17.45;8.48;;;;;;;;;;5045301;28;20049;-72
2022/12/03 09:07:55;;;;;;;19.75;11.10;;;;;;;;;;5047640;28;20045;-72
2022/12/03 09:10:21;;;;;;;21.17;10.88;;;;;;;;;;5025835;28;20103;-73
2022/12/03 09:12:47;;;;;;;22.65;10.98;;;;;;;;;;5028811;28;20034;-72
2022/12/03 09:15:13;;;;;;;8.63;5.50;;;;;;;;;;5025786;28;20504;-72
2022/12/03 09:17:39;;;;;;;18.00;8.25;;;;;;;;;;5027220;28;20045;-72
2022/12/03 09:20:06;;;;;;;19.10;9.30;;;;;;;;;;5045862;28;20128;-72
2022/12/03 09:22:32;;;;;;;18.63;9.55;;;;;;;;;;5029325;28;20049;-72
2022/12/03 09:24:58;;;;;;;17.25;7.63;;;;;;;;;;5028554;28;20148;-72
2022/12/03 09:27:24;;;;;;;15.77;8.40;;;;;;;;;;5042741;28;20113;-72
2022/12/03 09:29:50;;;;;;;8.38;4.60;;;;;;;;;;5029659;28;20037;-72
2022/12/03 09:32:16;;;;;;;14.90;7.82;;;;;;;;;;5028696;28;20061;-72
2022/12/03 09:34:42;;;;;;;16.63;8.27;;;;;;;;;;5041672;28;20084;-73
2022/12/03 09:37:09;;;;;;;15.75;7.45;;;;;;;;;;5028201;28;20060;-73
2022/12/03 09:39:35;;;;;;;16.92;8.40;;;;;;;;;;5033263;28;20045;-73
2022/12/03 09:42:01;;;;;;;16.35;8.38;;;;;;;;;;5029452;28;20109;-73
2022/12/03 09:44:34;;;;;;;15.63;8.27;;;;;;;;;;5047688;28;20148;-72
2022/12/03 09:47:01;;;;;;;23.25;10.00;;;;;;;;;;5029798;28;20046;-72
2022/12/03 09:49:28;;;;;;;19.92;9.00;;;;;;;;;;5034928;28;20044;-74
2022/12/03 09:51:57;;;;;;;13.73;7.63;;;;;;;;;;5027058;28;20041;-73
2022/12/03 09:54:25;;;;;;;17.88;9.05;;;;;;;;;;5028976;28;20044;-72
2022/12/03 09:56:53;;;;;;;21.70;9.73;;;;;;;;;;5024879;28;20041;-73
2022/12/03 09:59:20;;;;;;;17.13;8.95;;;;;;;;;;5029551;28;20119;-72
2022/12/03 10:01:46;;;;;;;16.88;9.50;;;;;;;;;;5029066;28;20052;-73
2022/12/03 10:04:12;;;;;;;20.30;10.20;;;;;;;;;;5024459;28;20575;-73
2022/12/03 10:06:39;;;;;;;18.42;7.93;;;;;;;;;;5041018;28;20053;-73
2022/12/03 10:09:05;;;;;;;18.45;8.63;;;;;;;;;;5026475;28;20046;-73
2022/12/03 10:11:32;;;;;;;18.08;8.50;;;;;;;;;;5025991;28;20081;-73
2022/12/03 10:13:58;;;;;;;17.98;9.50;;;;;;;;;;5026405;28;20046;-74
2022/12/03 10:16:25;;;;;;;19.45;9.07;;;;;;;;;;5024773;28;20057;-73
2022/12/03 10:18:53;;;;;;;17.35;8.32;;;;;;;;;;5027145;28;20049;-73
2022/12/03 10:21:38;;;;;;;14.75;8.48;;;;;;;;;;5024314;28;20045;-74
2022/12/03 10:24:27;;;;;;;16.38;9.43;;;;;;;;;;5024891;28;20045;-73
2022/12/03 10:27:01;;;;;;;18.35;10.10;;;;;;;;;;5010831;28;20511;-73
2022/12/03 10:29:28;;;;;;;15.48;9.73;;;;;;;;;;5037235;28;20045;-73
2022/12/03 10:31:56;;;;;;;16.38;8.27;;;;;;;;;;5026045;28;20103;-73
2022/12/03 10:34:26;;;;;;;17.65;9.48;;;;;;;;;;5027712;28;20553;-73
2022/12/03 10:37:11;;;;;;;18.00;8.73;;;;;;;;;;5030562;28;20091;-73
2022/12/03 10:39:56;;;;;;;17.80;9.77;;;;;;;;;;5028900;28;20088;-73
2022/12/03 10:42:22;;;;;;;18.30;10.77;;;;;;;;;;5030098;28;20064;-73
2022/12/03 10:44:52;;;;;;;19.13;9.35;;;;;;;;;;5029616;28;20546;-73
2022/12/03 10:47:19;;;;;;;17.88;9.23;;;;;;;;;;5025646;28;20050;-74
2022/12/03 10:50:00;;;;;;;18.98;9.70;;;;;;;;;;5026566;28;20124;-73
2022/12/03 10:52:26;;;;;;;15.23;8.80;;;;;;;;;;5028722;28;20210;-73
2022/12/03 10:54:52;;;;;;;16.42;9.15;;;;;;;;;;5046458;28;20034;-74
2022/12/03 10:57:18;;;;;;;19.83;9.98;;;;;;;;;;5029383;28;20041;-73
2022/12/03 10:59:44;;;;;;;18.58;10.05;;;;;;;;;;5029677;28;20107;-72
2022/12/03 11:02:21;;;;;;;20.13;10.20;;;;;;;;;;5025484;28;20038;-74
2022/12/03 11:04:47;;;;;;;25.83;11.02;;;;;;;;;;5046058;28;20611;-73
2022/12/03 11:07:18;;;;;;;20.85;11.95;;;;;;;;;;5028296;28;20052;-73
2022/12/03 11:09:45;;;;;;;21.23;10.32;;;;;;;;;;5030241;28;20162;-74
2022/12/03 11:12:19;;;;;;;15.65;9.23;;;;;;;;;;5030631;28;20069;-74
2022/12/03 11:14:52;;;;;;;23.00;11.85;;;;;;;;;;5037050;28;20042;-73
2022/12/03 11:17:24;;;;;;;18.42;10.10;;;;;;;;;;5029241;28;20037;-73
2022/12/03 11:19:51;;;;;;;17.17;8.85;;;;;;;;;;5030435;28;20056;-74
2022/12/03 11:22:28;;;;;;;17.85;10.25;;;;;;;;;;5029298;28;20065;-73
2022/12/03 11:25:13;;;;;;;21.45;10.88;;;;;;;;;;5027343;28;20099;-73
2022/12/03 11:27:43;;;;;;;19.02;11.10;;;;;;;;;;5031079;28;20061;-74
2022/12/03 11:30:09;;;;;;;16.83;8.80;;;;;;;;;;5031971;28;20136;-73
2022/12/03 11:32:36;;;;;;;19.15;10.65;;;;;;;;;;5034511;28;20077;-74
2022/12/03 11:35:02;;;;;;;22.45;10.40;;;;;;;;;;5029564;28;20340;-74
2022/12/03 11:37:28;;;;;;;18.77;10.05;;;;;;;;;;5030752;28;20526;-74
2022/12/03 11:39:54;;;;;;;19.02;10.23;;;;;;;;;;5031734;28;20045;-73
2022/12/03 11:42:26;;;;;;;26.25;11.10;;;;;;;;;;5033424;28;20053;-74
2022/12/03 11:44:52;;;;;;;;;;;;;;;;;;5028901;28;20061;-74
2022/12/03 11:47:18;;;;;;;19.58;9.82;;;;;;;;;;5027562;28;19968;-72
2022/12/03 11:49:45;;;;;;;16.13;9.23;;;;;;;;;;5023225;28;20091;-72
2022/12/03 11:52:18;;;;;;;19.13;9.43;;;;;;;;;;5031031;28;20583;-72
2022/12/03 11:54:46;;;;;;;17.35;9.57;;;;;;;;;;5028661;28;20049;-72
2022/12/03 11:57:39;;;;;;;18.67;8.98;;;;;;;;;;5028709;28;20611;-72
2022/12/03 12:00:05;;;;;;;16.45;10.30;;;;;;;;;;5021383;28;20046;-74
2022/12/03 12:02:31;;;;;;;14.70;8.43;;;;;;;;;;5032936;28;20101;-74
2022/12/03 12:05:13;;;;;;;18.08;8.98;;;;;;;;;;5029125;28;20095;-73
2022/12/03 12:07:39;;;;;;;13.23;7.18;;;;;;;;;;5035201;28;20318;-74
2022/12/03 12:10:05;;;;;;;16.92;10.23;;;;;;;;;;5026324;28;20045;-73
2022/12/03 12:12:39;;;;;;;26.75;10.27;;;;;;;;;;5040586;28;20290;-73
2022/12/03 12:15:24;;;;;;;21.60;10.00;;;;;;;;;;5022965;28;20041;-73
2022/12/03 12:17:50;;;;;;;19.15;10.13;;;;;;;;;;5024787;28;20561;-73
2022/12/03 12:20:24;;;;;;;22.55;11.38;;;;;;;;;;5031448;28;20045;-73
2022/12/03 12:22:51;;;;;;;21.30;12.02;;;;;;;;;;5026352;28;20164;-72
2022/12/03 12:25:29;;;;;;;18.95;10.45;;;;;;;;;;5028016;28;20072;-72
2022/12/03 12:27:56;;;;;;;19.30;9.23;;;;;;;;;;5027291;28;20141;-73
2022/12/03 12:30:22;;;;;;;15.45;8.20;;;;;;;;;;5026102;28;20038;-71
2022/12/03 12:32:49;;;;;;;20.77;10.63;;;;;;;;;;5042129;28;20135;-72
2022/12/03 12:35:21;;;;;;;17.00;9.38;;;;;;;;;;5027593;28;20037;-72
2022/12/03 12:37:47;;;;;;;;;;;;;;;;;;5028836;28;20572;-71
2022/12/03 12:40:15;;;;;;;17.33;10.02;;;;;;;;;;5042405;28;19921;-72
2022/12/03 12:42:47;;;;;;;16.55;9.20;;;;;;;;;;5026414;28;20132;-72
2022/12/03 12:45:15;;;;;;;21.20;11.13;;;;;;;;;;5027640;28;20037;-73
2022/12/03 12:48:07;;;;;;;17.00;9.45;;;;;;;;;;5028882;28;20767;-73
2022/12/03 12:50:33;;;;;;;15.82;8.73;;;;;;;;;;5022452;28;20108;-73
2022/12/03 12:53:08;;;;;;;16.55;9.32;;;;;;;;;;5029364;28;20045;-73
2022/12/03 12:55:34;;;;;;;15.15;8.63;;;;;;;;;;5030364;28;20068;-72
2022/12/03 12:58:02;;;;;;;16.60;8.63;;;;;;;;;;5045211;28;20034;-73
2022/12/03 13:00:29;;;;;;;15.25;7.68;;;;;;;;;;5029736;28;20549;-73
2022/12/03 13:02:59;;;;;;;19.27;10.38;;;;;;;;;;5027541;28;20041;-73
2022/12/03 13:05:26;;;;;;;15.27;9.20;;;;;;;;;;5027928;28;20475;-73
2022/12/03 13:07:54;;;;;;;15.15;8.90;;;;;;;;;;5026352;28;20128;-72
2022/12/03 13:10:20;;;;;;;17.38;10.43;;;;;;;;;;5034978;28;20546;-73
2022/12/03 13:12:46;;;;;;;16.88;9.50;;;;;;;;;;5027007;28;20520;-74
2022/12/03 13:15:32;;;;;;;19.00;9.68;;;;;;;;;;5027755;28;20599;-74
2022/12/03 13:17:58;;;;;;;15.63;8.60;;;;;;;;;;5027212;28;20128;-72
2022/12/03 13:20:24;;;;;;;18.23;8.75;;;;;;;;;;5026338;28;20736;-72
2022/12/03 13:22:50;;;;;;;16.80;9.18;;;;;;;;;;5023108;28;21372;-72
2022/12/03 13:25:31;;;;;;;17.55;8.77;;;;;;;;;;5026298;28;20057;-72
2022/12/03 13:27:57;;;;;;;15.82;9.35;;;;;;;;;;5027916;28;20085;-72
2022/12/03 13:30:25;;;;;;;13.60;8.45;;;;;;;;;;5044567;28;20087;-73
2022/12/03 13:32:51;;;;;;;16.92;9.38;;;;;;;;;;5041218;28;20794;-72
2022/12/03 13:35:26;;;;;;;14.73;9.50;;;;;;;;;;5039215;28;20034;-72
2022/12/03 13:37:52;;;;;;;14.48;7.28;;;;;;;;;;5040081;28;20116;-73
2022/12/03 13:40:31;;;;;;;17.08;7.65;;;;;;;;;;5027866;28;20042;-72
2022/12/03 13:42:58;;;;;;;13.48;8.68;;;;;;;;;;5020476;28;20685;-72
2022/12/03 13:45:24;;;;;;;15.20;9.38;;;;;;;;;;5025328;28;20695;-73
2022/12/03 13:47:54;;;;;;;14.63;10.02;;;;;;;;;;5023650;28;20058;-73
2022/12/03 13:50:20;;;;;;;14.70;8.57;;;;;;;;;;5026710;28;20038;-73
2022/12/03 13:52:47;;;;;;;12.30;7.57;;;;;;;;;;5039793;28;20176;-72
2022/12/03 13:55:21;;;;;;;16.38;8.55;;;;;;;;;;5021707;28;20135;-73
2022/12/03 13:57:47;;;;;;;13.82;8.50;;;;;;;;;;5028177;28;20136;-78
2022/12/03 14:00:13;;;;;;;15.02;8.52;;;;;;;;;;5028825;28;20084;-82
2022/12/03 14:02:40;;;;;;;13.40;8.10;;;;;;;;;;5035514;28;20510;-82
2022/12/03 14:05:06;;;;;;;16.65;7.90;;;;;;;;;;5023653;28;20041;-83
2022/12/03 14:07:32;;;;;;;12.52;7.65;;;;;;;;;;5027067;28;20156;-83
2022/12/03 14:09:58;;;;;;;12.55;7.57;;;;;;;;;;5031522;28;20083;-83
2022/12/03 14:12:24;;;;;;;14.05;8.80;;;;;;;;;;5031353;28;20148;-83
2022/12/03 14:14:50;;;;;;;14.85;8.45;;;;;;;;;;5031470;28;20502;-82
2022/12/03 14:17:16;;;;;;;13.70;7.90;;;;;;;;;;5031232;28;20549;-84
2022/12/03 14:19:43;;;;;;;14.75;8.18;;;;;;;;;;5029374;28;20045;-83
2022/12/03 14:22:09;;;;;;;15.63;8.95;;;;;;;;;;5029291;28;20870;-83
2022/12/03 14:24:36;;;;;;;14.48;8.23;;;;;;;;;;5030477;28;20045;-80
2022/12/03 14:27:02;;;;;;;13.00;8.52;;;;;;;;;;5032531;28;20065;-81
2022/12/03 14:29:28;;;;;;;13.68;8.05;;;;;;;;;;5029344;28;20045;-81
2022/12/03 14:31:54;;;;;;;12.18;7.97;;;;;;;;;;5043858;28;20089;-82
2022/12/03 14:34:20;;;;;;;13.32;7.72;;;;;;;;;;5044001;28;20042;-81
2022/12/03 14:36:46;;;;;;;19.58;9.60;;;;;;;;;;5034642;28;20516;-81
2022/12/03 14:39:13;;;;;;;13.75;8.02;;;;;;;;;;5028511;28;20042;-80
2022/12/03 14:44:24;;;;;;;12.80;8.45;;;;;;;;;;5030401;28;20050;-81
2022/12/03 14:46:50;;;;;;;12.05;7.25;;;;;;;;;;5029819;28;20042;-82
2022/12/03 14:49:16;;;;;;;17.92;10.00;;;;;;;;;;5027608;28;20053;-81